Time;durP1;ratioP1;P1;durP2;ratioP2;P2;SDS_P1;SDS_P2;PMS_P1;PMS_P2;Temp;Humidity;BMP_temperature;BMP_pressure;BME280_temperature;BME280_humidity;BME280_pressure;Samples;Min_cycle;Max_cycle;Signal;HPM_P1;HPM_P2
2024/03/22 00:02:02;;;;;;;;;;;;;;;;;;2197766;59;1831;-17
2024/03/22 00:04:32;;;;;;;;;;;;;;;;;;2191372;59;1787;-17
2024/03/22 00:07:03;;;;;;;;;;;;;;;;;;2197329;67;2705;-17
2024/03/22 00:09:33;;;;;;;;;;;;;;;;;;2198418;67;1816;-18
2024/03/22 00:12:04;;;;;;;;;;;;;;;;;;2197604;58;2013;-18
2024/03/22 00:14:34;;;;;;;;;;;;;;;;;;2195576;59;1839;-17
2024/03/22 00:17:04;;;;;;;;;;;;;;;;;;2197227;67;1921;-18
2024/03/22 00:19:35;;;;;;;;;;;;;;;;;;2197745;67;1081;-17
2024/03/22 00:22:05;;;;;;;;;;;;;;;;;;2193745;67;1826;-17
2024/03/22 00:24:35;;;;;;;;;;;;;;;;;;2193127;59;2354;-17
2024/03/22 00:27:06;;;;;;;;;;;;;;;;;;2197700;59;2306;-17
2024/03/22 00:29:37;;;;;;;;;;;;;;;;;;2199117;59;1647;-18
2024/03/22 00:32:07;;;;;;;;;;;;;;;;;;2197904;66;3496;-17
2024/03/22 00:34:38;;;;;;;;;;;;;;;;;;2193562;67;2707;-18
2024/03/22 00:37:08;;;;;;;;;;;;;;;;;;2195168;59;1950;-17
2024/03/22 00:39:38;;;;;;;;;;;;;;;;;;2198303;59;1984;-17
2024/03/22 00:42:08;;;;;;;;;;;;;;;;;;2194928;59;1873;-18
2024/03/22 00:44:39;;;;;;;;;;;;;;;;;;2198576;59;1871;-17
2024/03/22 00:47:09;;;;;;;;;;;;;;;;;;2197705;66;1921;-17
2024/03/22 00:49:39;;;;;;;;;;;;;;;;;;2194982;67;3195;-17
2024/03/22 00:52:10;;;;;;;;;;;;;;;;;;2197894;66;2833;-17
2024/03/22 00:54:40;;;;;;;;;;;;;;;;;;2198229;67;1740;-17
2024/03/22 00:57:10;;;;;;;;;;;;;;;;;;2194186;66;1949;-17
2024/03/22 00:59:41;;;;;;;;;;;;;;;;;;2195189;67;4062;-17
2024/03/22 01:02:11;;;;;;;;;;;;;;;;;;2194086;59;1851;-18
2024/03/22 01:04:41;;;;;;;;;;;;;;;;;;2196542;67;1885;-17
2024/03/22 01:07:12;;;;;;;;;;;;;;;;;;2191299;67;2879;-17
2024/03/22 01:09:44;;;;;;;;;;;;;;;;;;2198063;66;1821;-18
2024/03/22 01:12:14;;;;;;;;;;;;;;;;;;2198473;59;2268;-18
2024/03/22 01:14:44;;;;;;;;;;;;;;;;;;2198794;59;1850;-17
2024/03/22 01:17:15;;;;;;;;;;;;;;;;;;2195136;66;2099;-17
2024/03/22 01:19:45;;;;;;;;;;;;;;;;;;2199198;67;2637;-17
2024/03/22 01:22:16;;;;;;;;;;;;;;;;;;2197598;67;2362;-19
2024/03/22 01:24:47;;;;;;;;;;;;;;;;;;2210479;58;1973;-17
2024/03/22 01:27:17;;;;;;;;;;;;;;;;;;2191154;67;1714;-17
2024/03/22 01:29:48;;;;;;;;;;;;;;;;;;2195245;67;1930;-18
2024/03/22 01:32:18;;;;;;;;;;;;;;;;;;2194448;67;1963;-17
2024/03/22 01:34:48;;;;;;;;;;;;;;;;;;2199181;59;1735;-17
2024/03/22 01:37:19;;;;;;;;;;;;;;;;;;2195465;59;2491;-17
2024/03/22 01:39:49;;;;;;;;;;;;;;;;;;2198225;59;2455;-17
2024/03/22 01:42:19;;;;;;;;;;;;;;;;;;2198847;59;1909;-17
2024/03/22 01:44:50;;;;;;;;;;;;;;;;;;2200235;58;1477;-17
2024/03/22 01:47:20;;;;;;;;;;;;;;;;;;2194595;67;2117;-17
2024/03/22 01:49:52;;;;;;;;;;;;;;;;;;2195315;60;2001;-17
2024/03/22 01:52:22;;;;;;;;;;;;;;;;;;2195463;67;1821;-17
2024/03/22 01:54:53;;;;;;;;;;;;;;;;;;2198632;67;1704;-18
2024/03/22 01:57:24;;;;;;;;;;;;;;;;;;2197497;59;1854;-17
2024/03/22 01:59:55;;;;;;;;;;;;;;;;;;2198041;59;2124;-17
2024/03/22 02:02:26;;;;;;;;;;;;;;;;;;2197834;67;1858;-17
2024/03/22 02:04:56;;;;;;;;;;;;;;;;;;2199166;66;3402;-17
2024/03/22 02:07:29;;;;;;;;;;;;;;;;;;2194747;67;1893;-17
2024/03/22 02:10:00;;;;;;;;;;;;;;;;;;2198499;59;1996;-17
2024/03/22 02:12:30;;;;;;;;;;;;;;;;;;2195248;59;1875;-17
2024/03/22 02:15:02;;;;;;;;;;;;;;;;;;2198363;59;1721;-17
2024/03/22 02:17:32;;;;;;;;;;;;;;;;;;2195232;66;1785;-17
2024/03/22 02:20:04;;;;;;;;;;;;;;;;;;2198545;59;1757;-17
2024/03/22 02:22:34;;;;;;;;;;;;;;;;;;2198103;59;2025;-17
2024/03/22 02:25:08;;;;;;;;;;;;;;;;;;2198643;67;2235;-17
2024/03/22 02:27:38;;;;;;;;;;;;;;;;;;2198214;59;1838;-17
2024/03/22 02:30:09;;;;;;;;;;;;;;;;;;2197387;67;1921;-17
2024/03/22 02:32:40;;;;;;;;;;;;;;;;;;2199182;67;1986;-17
2024/03/22 02:35:10;;;;;;;;;;;;;;;;;;2198033;59;1869;-17
2024/03/22 02:37:41;;;;;;;;;;;;;;;;;;2199702;59;1888;-17
2024/03/22 02:40:11;;;;;;;;;;;;;;;;;;2194122;59;2212;-17
2024/03/22 02:42:42;;;;;;;;;;;;;;;;;;2198611;67;1911;-17
2024/03/22 02:45:12;;;;;;;;;;;;;;;;;;2197669;59;1976;-17
2024/03/22 02:47:43;;;;;;;;;;;;;;;;;;2199138;66;2430;-17
2024/03/22 02:50:13;;;;;;;;;;;;;;;;;;2196443;66;2010;-17
2024/03/22 02:52:44;;;;;;;;;;;;;;;;;;2193478;67;1837;-17
2024/03/22 02:55:14;;;;;;;;;;;;;;;;;;2196218;67;2542;-17
2024/03/22 02:57:44;;;;;;;;;;;;;;;;;;2198419;67;1944;-17
2024/03/22 03:00:15;;;;;;;;;;;;;;;;;;2197120;66;2097;-17
2024/03/22 03:02:45;;;;;;;;;;;;;;;;;;2196937;67;1835;-17
2024/03/22 03:05:16;;;;;;;;;;;;;;;;;;2193893;66;1897;-17
2024/03/22 03:07:47;;;;;;;;;;;;;;;;;;2195350;67;1812;-17
2024/03/22 03:10:17;;;;;;;;;;;;;;;;;;2198295;59;1933;-17
2024/03/22 03:12:47;;;;;;;;;;;;;;;;;;2196107;59;2202;-17
2024/03/22 03:15:18;;;;;;;;;;;;;;;;;;2193752;59;1825;-17
2024/03/22 03:17:48;;;;;;;;;;;;;;;;;;2196237;59;1792;-17
2024/03/22 03:20:19;;;;;;;;;;;;;;;;;;2197979;66;1679;-17
2024/03/22 03:22:49;;;;;;;;;;;;;;;;;;2198168;59;1890;-17
2024/03/22 03:25:19;;;;;;;;;;;;;;;;;;2197845;67;2021;-17
2024/03/22 03:27:50;;;;;;;;;;;;;;;;;;2198769;59;1822;-17
2024/03/22 03:30:20;;;;;;;;;;;;;;;;;;2193510;66;2283;-17
2024/03/22 03:32:51;;;;;;;;;;;;;;;;;;2193308;67;2190;-18
2024/03/22 03:35:21;;;;;;;;;;;;;;;;;;2197954;59;1944;-17
2024/03/22 03:37:52;;;;;;;;;;;;;;;;;;2198745;59;1840;-17
2024/03/22 03:40:24;;;;;;;;;;;;;;;;;;2198588;59;2017;-17
2024/03/22 03:42:54;;;;;;;;;;;;;;;;;;2198562;66;1955;-17
2024/03/22 03:45:25;;;;;;;;;;;;;;;;;;2197896;59;1971;-17
2024/03/22 03:47:55;;;;;;;;;;;;;;;;;;2198717;66;1557;-17
2024/03/22 03:50:25;;;;;;;;;;;;;;;;;;2196031;67;1996;-17
2024/03/22 03:52:56;;;;;;;;;;;;;;;;;;2199413;67;1118;-17
2024/03/22 03:55:26;;;;;;;;;;;;;;;;;;2198504;67;1446;-17
2024/03/22 03:57:56;;;;;;;;;;;;;;;;;;2195463;67;1309;-17
2024/03/22 04:00:30;;;;;;;;;;;;;;;;;;2195090;67;1517;-17
2024/03/22 04:03:00;;;;;;;;;;;;;;;;;;2194939;66;2232;-17
2024/03/22 04:05:31;;;;;;;;;;;;;;;;;;2198186;67;1259;-17
2024/03/22 04:08:01;;;;;;;;;;;;;;;;;;2195887;67;1511;-18
2024/03/22 04:10:32;;;;;;;;;;;;;;;;;;2193973;59;1911;-17
2024/03/22 04:13:02;;;;;;;;;;;;;;;;;;2198993;59;1652;-17
2024/03/22 04:15:36;;;;;;;;;;;;;;;;;;2198106;59;1235;-17
2024/03/22 04:18:06;;;;;;;;;;;;;;;;;;2198517;67;1197;-17
2024/03/22 04:20:36;;;;;;;;;;;;;;;;;;2197568;67;1220;-17
2024/03/22 04:23:07;;;;;;;;;;;;;;;;;;2198713;59;1285;-17
2024/03/22 04:25:37;;;;;;;;;;;;;;;;;;2197875;59;2079;-17
2024/03/22 04:28:08;;;;;;;;;;;;;;;;;;2195991;67;1220;-17
2024/03/22 04:30:38;;;;;;;;;;;;;;;;;;2194180;66;1934;-17
2024/03/22 04:33:09;;;;;;;;;;;;;;;;;;2198473;59;1651;-17
2024/03/22 04:35:44;;;;;;;;;;;;;;;;;;2197932;66;1244;-17
2024/03/22 04:38:15;;;;;;;;;;;;;;;;;;2195256;59;1508;-17
2024/03/22 04:40:45;;;;;;;;;;;;;;;;;;2197848;59;1877;-17
2024/03/22 04:43:16;;;;;;;;;;;;;;;;;;2197799;67;1422;-17
2024/03/22 04:45:47;;;;;;;;;;;;;;;;;;2197327;59;1651;-17
2024/03/22 04:48:21;;;;;;;;;;;;;;;;;;2197756;67;1426;-17
2024/03/22 04:50:52;;;;;;;;;;;;;;;;;;2196170;67;1942;-19
2024/03/22 04:53:22;;;;;;;;;;;;;;;;;;2194131;67;1341;-17
2024/03/22 04:55:53;;;;;;;;;;;;;;;;;;2199107;66;1581;-17
2024/03/22 04:58:23;;;;;;;;;;;;;;;;;;2197759;67;1405;-17
2024/03/22 05:00:57;;;;;;;;;;;;;;;;;;2194864;67;1410;-17
2024/03/22 05:03:28;;;;;;;;;;;;;;;;;;2194849;67;1885;-17
2024/03/22 05:05:58;;;;;;;;;;;;;;;;;;2198131;67;1205;-17
2024/03/22 05:08:29;;;;;;;;;;;;;;;;;;2198047;67;1218;-17
2024/03/22 05:10:59;;;;;;;;;;;;;;;;;;2198552;59;1940;-17
2024/03/22 05:13:31;;;;;;;;;;;;;;;;;;2198607;59;1461;-17
2024/03/22 05:16:01;;;;;;;;;;;;;;;;;;2198684;66;1228;-17
2024/03/22 05:18:32;;;;;;;;;;;;;;;;;;2195062;66;1449;-17
2024/03/22 05:21:03;;;;;;;;;;;;;;;;;;2198698;67;1227;-17
2024/03/22 05:23:33;;;;;;;;;;;;;;;;;;2197805;59;1348;-17
2024/03/22 05:26:04;;;;;;;;;;;;;;;;;;2198493;59;1275;-17
2024/03/22 05:28:34;;;;;;;;;;;;;;;;;;2196026;67;1216;-17
2024/03/22 05:31:04;;;;;;;;;;;;;;;;;;2193833;67;1944;-17
2024/03/22 05:33:35;;;;;;;;;;;;;;;;;;2198302;59;1693;-17
2024/03/22 05:36:05;;;;;;;;;;;;;;;;;;2199049;67;1530;-17
2024/03/22 05:38:36;;;;;;;;;;;;;;;;;;2198375;59;1623;-17
2024/03/22 05:41:06;;;;;;;;;;;;;;;;;;2194252;59;1780;-17
2024/03/22 05:43:36;;;;;;;;;;;;;;;;;;2194432;67;1603;-17
2024/03/22 05:46:06;;;;;;;;;;;;;;;;;;2195635;59;2038;-17
2024/03/22 05:48:37;;;;;;;;;;;;;;;;;;2197918;66;1373;-17
2024/03/22 05:51:07;;;;;;;;;;;;;;;;;;2199000;66;1935;-17
2024/03/22 05:53:37;;;;;;;;;;;;;;;;;;2195616;66;1873;-17
2024/03/22 05:56:08;;;;;;;;;;;;;;;;;;2199041;66;1474;-17
2024/03/22 05:58:38;;;;;;;;;;;;;;;;;;2194368;59;1646;-17
2024/03/22 06:01:08;;;;;;;;;;;;;;;;;;2201208;54;2117;-25
2024/03/22 06:03:39;;;;;;;;;;;;;;;;;;2192357;59;1708;-25
2024/03/22 06:06:09;;;;;;;;;;;;;;;;;;2196500;59;2374;-25
2024/03/22 06:08:41;;;;;;;;;;;;;;;;;;2199000;59;1704;-25
2024/03/22 06:11:12;;;;;;;;;;;;;;;;;;2197441;59;1991;-25
2024/03/22 06:13:42;;;;;;;;;;;;;;;;;;2193526;59;1921;-25
2024/03/22 06:16:12;;;;;;;;;;;;;;;;;;2195214;66;1743;-25
2024/03/22 06:18:42;;;;;;;;;;;;;;;;;;2192994;59;2155;-25
2024/03/22 06:21:14;;;;;;;;;;;;;;;;;;2194325;66;1735;-25
2024/03/22 06:23:44;;;;;;;;;;;;;;;;;;2192884;59;1891;-25
2024/03/22 06:26:15;;;;;;;;;;;;;;;;;;2194859;59;1800;-25
2024/03/22 06:28:45;;;;;;;;;;;;;;;;;;2196118;58;1887;-25
2024/03/22 06:31:15;;;;;;;;;;;;;;;;;;2194813;59;2089;-25
2024/03/22 06:33:45;;;;;;;;;;;;;;;;;;2193046;59;1983;-25
2024/03/22 06:36:16;;;;;;;;;;;;;;;;;;2192433;59;1897;-26
2024/03/22 06:38:46;;;;;;;;;;;;;;;;;;2194379;59;1871;-26
2024/03/22 06:41:16;;;;;;;;;;;;;;;;;;2196360;59;1895;-26
2024/03/22 06:43:46;;;;;;;;;;;;;;;;;;2194108;60;1730;-25
2024/03/22 06:46:17;;;;;;;;;;;;;;;;;;2195445;59;1726;-25
2024/03/22 06:48:47;;;;;;;;;;;;;;;;;;2193332;60;2229;-25
2024/03/22 06:51:17;;;;;;;;;;;;;;;;;;2194311;66;1928;-26
2024/03/22 06:53:47;;;;;;;;;;;;;;;;;;2193114;59;2123;-25
2024/03/22 06:56:18;;;;;;;;;;;;;;;;;;2194676;59;2905;-25
2024/03/22 06:58:48;;;;;;;;;;;;;;;;;;2194437;66;2001;-23
2024/03/22 07:01:20;;;;;;;;;;;;;;;;;;2194912;59;1876;-23
2024/03/22 07:03:52;;;;;;;;;;;;;;;;;;2193898;66;2482;-23
2024/03/22 07:06:22;;;;;;;;;;;;;;;;;;2195797;59;1726;-23
2024/03/22 07:08:52;;;;;;;;;;;;;;;;;;2193797;60;2691;-23
2024/03/22 07:11:22;;;;;;;;;;;;;;;;;;2194297;59;2438;-23
2024/03/22 07:13:53;;;;;;;;;;;;;;;;;;2191670;59;2440;-23
2024/03/22 07:16:23;;;;;;;;;;;;;;;;;;2193353;59;2441;-23
2024/03/22 07:18:53;;;;;;;;;;;;;;;;;;2193573;59;2475;-23
2024/03/22 07:21:23;;;;;;;;;;;;;;;;;;2192315;59;2646;-23
2024/03/22 07:23:54;;;;;;;;;;;;;;;;;;2190713;59;2717;-23
2024/03/22 07:26:24;;;;;;;;;;;;;;;;;;2194090;59;2706;-23
2024/03/22 07:28:54;;;;;;;;;;;;;;;;;;2190943;59;2380;-23
2024/03/22 07:31:24;;;;;;;;;;;;;;;;;;2193477;59;2588;-24
2024/03/22 07:33:55;;;;;;;;;;;;;;;;;;2192192;59;2459;-24
2024/03/22 07:36:26;;;;;;;;;;;;;;;;;;2194161;66;2525;-24
2024/03/22 07:38:58;;;;;;;;;;;;;;;;;;2192175;58;2134;-24
2024/03/22 07:41:28;;;;;;;;;;;;;;;;;;2194349;59;2518;-24
2024/03/22 07:44:00;;;;;;;;;;;;;;;;;;2193866;59;2264;-24
2024/03/22 07:46:30;;;;;;;;;;;;;;;;;;2197285;59;1750;-23
2024/03/22 07:49:00;;;;;;;;;;;;;;;;;;2193211;59;1826;-24
2024/03/22 07:51:30;;;;;;;;;;;;;;;;;;2191840;58;2372;-24
2024/03/22 07:54:01;;;;;;;;;;;;;;;;;;2192479;59;1827;-24
2024/03/22 07:56:31;;;;;;;;;;;;;;;;;;2194325;60;1744;-24
2024/03/22 07:59:01;;;;;;;;;;;;;;;;;;2193300;59;2415;-24
2024/03/22 08:01:31;;;;;;;;;;;;;;;;;;2193091;59;2645;-24
2024/03/22 08:04:02;;;;;;;;;;;;;;;;;;2193114;59;2367;-24
2024/03/22 08:06:32;;;;;;;;;;;;;;;;;;2195305;59;2728;-24
2024/03/22 08:09:03;;;;;;;;;;;;;;;;;;2193697;66;2081;-24
2024/03/22 08:11:33;;;;;;;;;;;;;;;;;;2194706;59;2221;-24
2024/03/22 08:14:04;;;;;;;;;;;;;;;;;;2195660;59;2547;-24
2024/03/22 08:16:34;;;;;;;;;;;;;;;;;;2195784;59;2288;-24
2024/03/22 08:19:04;;;;;;;;;;;;;;;;;;2195739;59;2372;-24
2024/03/22 08:21:36;;;;;;;;;;;;;;;;;;2191266;66;2518;-24
2024/03/22 08:24:06;;;;;;;;;;;;;;;;;;2195062;59;1859;-24
2024/03/22 08:26:36;;;;;;;;;;;;;;;;;;2193502;59;2315;-25
2024/03/22 08:29:07;;;;;;;;;;;;;;;;;;2194826;66;1846;-24
2024/03/22 08:31:37;;;;;;;;;;;;;;;;;;2193361;59;2482;-24
2024/03/22 08:34:07;;;;;;;;;;;;;;;;;;2194094;59;2812;-24
2024/03/22 08:36:38;;;;;;;;;;;;;;;;;;2191307;59;2657;-24
2024/03/22 08:39:10;;;;;;;;;;;;;;;;;;2196040;59;2247;-24
2024/03/22 08:41:40;;;;;;;;;;;;;;;;;;2195330;59;3259;-24
2024/03/22 08:44:10;;;;;;;;;;;;;;;;;;2193532;66;2307;-24
2024/03/22 08:46:41;;;;;;;;;;;;;;;;;;2191114;59;2731;-24
2024/03/22 08:49:12;;;;;;;;;;;;;;;;;;2193860;59;2618;-24
2024/03/22 08:51:42;;;;;;;;;;;;;;;;;;2193220;59;2338;-24
2024/03/22 08:54:13;;;;;;;;;;;;;;;;;;2193641;58;2646;-24
2024/03/22 08:56:43;;;;;;;;;;;;;;;;;;2190818;59;2643;-24
2024/03/22 08:59:13;;;;;;;;;;;;;;;;;;2194456;59;2023;-24
2024/03/22 09:01:43;;;;;;;;;;;;;;;;;;2192119;59;2569;-24
2024/03/22 09:04:15;;;;;;;;;;;;;;;;;;2194992;60;1753;-24
2024/03/22 09:06:45;;;;;;;;;;;;;;;;;;2192141;60;2124;-24
2024/03/22 09:09:16;;;;;;;;;;;;;;;;;;2194772;66;2011;-24
2024/03/22 09:11:47;;;;;;;;;;;;;;;;;;2191821;59;2548;-24
2024/03/22 09:14:17;;;;;;;;;;;;;;;;;;2194765;59;2008;-24
2024/03/22 09:16:47;;;;;;;;;;;;;;;;;;2194423;66;2266;-24
2024/03/22 09:19:17;;;;;;;;;;;;;;;;;;2194565;59;2241;-24
2024/03/22 09:21:47;;;;;;;;;;;;;;;;;;2193105;66;1935;-25
2024/03/22 09:24:18;;;;;;;;;;;;;;;;;;2194983;59;1918;-24
2024/03/22 09:26:48;;;;;;;;;;;;;;;;;;2194140;59;2096;-24
2024/03/22 09:29:18;;;;;;;;;;;;;;;;;;2196600;66;1878;-25
2024/03/22 09:31:50;;;;;;;;;;;;;;;;;;2193614;59;2037;-24
2024/03/22 09:34:20;;;;;;;;;;;;;;;;;;2195786;59;2057;-24
2024/03/22 09:36:51;;;;;;;;;;;;;;;;;;2193153;59;2031;-24
2024/03/22 09:39:21;;;;;;;;;;;;;;;;;;2195479;59;2128;-25
2024/03/22 09:41:51;;;;;;;;;;;;;;;;;;2193194;59;2065;-24
2024/03/22 09:44:22;;;;;;;;;;;;;;;;;;2194773;66;2133;-24
2024/03/22 09:46:53;;;;;;;;;;;;;;;;;;2193686;59;2451;-24
2024/03/22 09:49:23;;;;;;;;;;;;;;;;;;2194555;66;2322;-24
2024/03/22 09:51:54;;;;;;;;;;;;;;;;;;2193219;59;2159;-24
2024/03/22 09:54:25;;;;;;;;;;;;;;;;;;2194155;66;2466;-25
2024/03/22 09:56:56;;;;;;;;;;;;;;;;;;2191704;66;2291;-25
2024/03/22 09:59:26;;;;;;;;;;;;;;;;;;2194514;66;2127;-24
2024/03/22 10:01:58;;;;;;;;;;;;;;;;;;2192702;59;2157;-24
2024/03/22 10:04:28;;;;;;;;;;;;;;;;;;2194103;66;1796;-24
2024/03/22 10:06:59;;;;;;;;;;;;;;;;;;2198365;66;2121;-24
2024/03/22 10:09:33;;;;;;;;;;;;;;;;;;2193806;59;2114;-25
2024/03/22 10:12:03;;;;;;;;;;;;;;;;;;2196994;58;2084;-24
2024/03/22 10:14:34;;;;;;;;;;;;;;;;;;2194490;59;1935;-25
2024/03/22 10:17:05;;;;;;;;;;;;;;;;;;2195578;66;2093;-22
2024/03/22 10:19:35;;;;;;;;;;;;;;;;;;2195159;59;1765;-22
2024/03/22 10:22:05;;;;;;;;;;;;;;;;;;2195597;66;1951;-22
2024/03/22 10:24:36;;;;;;;;;;;;;;;;;;2196563;59;1879;-22
2024/03/22 10:27:06;;;;;;;;;;;;;;;;;;2193424;59;1968;-23
2024/03/22 10:29:36;;;;;;;;;;;;;;;;;;2195837;59;1774;-23
2024/03/22 10:32:08;;;;;;;;;;;;;;;;;;2192158;66;1944;-23
2024/03/22 10:34:41;;;;;;;;;;;;;;;;;;2194963;59;1828;-23
2024/03/22 10:37:14;;;;;;;;;;;;;;;;;;2193176;59;2290;-23
2024/03/22 10:39:45;;;;;;;;;;;;;;;;;;2194238;59;2280;-23
2024/03/22 10:42:16;;;;;;;;;;;;;;;;;;2194007;59;1826;-23
2024/03/22 10:44:46;;;;;;;;;;;;;;;;;;2194132;59;2067;-22
2024/03/22 10:47:18;;;;;;;;;;;;;;;;;;2194240;66;2310;-23
2024/03/22 10:49:50;;;;;;;;;;;;;;;;;;2194455;66;2033;-23
2024/03/22 10:52:21;;;;;;;;;;;;;;;;;;2194794;59;1935;-22
2024/03/22 10:54:51;;;;;;;;;;;;;;;;;;2192700;66;1904;-23
2024/03/22 10:57:21;;;;;;;;;;;;;;;;;;2195393;66;1754;-23
2024/03/22 10:59:54;;;;;;;;;;;;;;;;;;2191292;59;2119;-23
2024/03/22 11:02:24;;;;;;;;;;;;;;;;;;2194618;59;2321;-23
2024/03/22 11:04:57;;;;;;;;;;;;;;;;;;2193219;60;2152;-23
2024/03/22 11:07:31;;;;;;;;;;;;;;;;;;2196682;66;1830;-23
2024/03/22 11:10:03;;;;;;;;;;;;;;;;;;2193233;59;2069;-23
2024/03/22 11:12:37;;;;;;;;;;;;;;;;;;2194468;59;1992;-23
2024/03/22 11:15:09;;;;;;;;;;;;;;;;;;2194161;58;1935;-23
2024/03/22 11:17:39;;;;;;;;;;;;;;;;;;2195084;66;2330;-23
2024/03/22 11:20:11;;;;;;;;;;;;;;;;;;2193454;59;2493;-23
2024/03/22 11:22:41;;;;;;;;;;;;;;;;;;2195478;59;2523;-23
2024/03/22 11:25:11;;;;;;;;;;;;;;;;;;2193578;59;2102;-23
2024/03/22 11:27:41;;;;;;;;;;;;;;;;;;2196912;66;1864;-23
2024/03/22 11:30:12;;;;;;;;;;;;;;;;;;2192753;59;1945;-23
2024/03/22 11:32:46;;;;;;;;;;;;;;;;;;2195402;66;2638;-23
2024/03/22 11:35:16;;;;;;;;;;;;;;;;;;2194273;59;1962;-23
2024/03/22 11:37:46;;;;;;;;;;;;;;;;;;2193850;59;3107;-23
2024/03/22 11:40:17;;;;;;;;;;;;;;;;;;2193986;59;3164;-23
2024/03/22 11:42:50;;;;;;;;;;;;;;;;;;2194794;59;2228;-23
2024/03/22 11:45:21;;;;;;;;;;;;;;;;;;2194155;59;2637;-23
2024/03/22 11:47:52;;;;;;;;;;;;;;;;;;2194141;59;2146;-23
2024/03/22 11:50:22;;;;;;;;;;;;;;;;;;2194906;66;2077;-23
2024/03/22 11:52:52;;;;;;;;;;;;;;;;;;2193705;66;2038;-23
2024/03/22 11:55:27;;;;;;;;;;;;;;;;;;2195537;59;2038;-23
2024/03/22 11:57:58;;;;;;;;;;;;;;;;;;2194422;66;2086;-23
2024/03/22 12:00:28;;;;;;;;;;;;;;;;;;2194695;66;1833;-23
2024/03/22 12:02:58;;;;;;;;;;;;;;;;;;2193670;59;2330;-23
2024/03/22 12:05:29;;;;;;;;;;;;;;;;;;2194549;66;1811;-23
2024/03/22 12:08:00;;;;;;;;;;;;;;;;;;2194683;59;2532;-23
2024/03/22 12:10:30;;;;;;;;;;;;;;;;;;2195190;59;2566;-23
2024/03/22 12:13:00;;;;;;;;;;;;;;;;;;2198439;59;3783;-19
2024/03/22 12:15:30;;;;;;;;;;;;;;;;;;2195259;59;3120;-19
2024/03/22 12:18:00;;;;;;;;;;;;;;;;;;2193282;59;2734;-19
2024/03/22 12:20:31;;;;;;;;;;;;;;;;;;2196078;66;2130;-19
2024/03/22 12:23:02;;;;;;;;;;;;;;;;;;2194692;59;2038;-19
2024/03/22 12:25:33;;;;;;;;;;;;;;;;;;2194458;67;2554;-19
2024/03/22 12:28:03;;;;;;;;;;;;;;;;;;2192192;66;2007;-19
2024/03/22 12:30:33;;;;;;;;;;;;;;;;;;2192608;59;2003;-19
2024/03/22 12:33:05;;;;;;;;;;;;;;;;;;2192147;66;1862;-19
2024/03/22 12:35:36;;;;;;;;;;;;;;;;;;2192867;59;1884;-19
2024/03/22 12:38:08;;;;;;;;;;;;;;;;;;2191706;66;1770;-19
2024/03/22 12:40:39;;;;;;;;;;;;;;;;;;2193139;59;2025;-19
2024/03/22 12:43:10;;;;;;;;;;;;;;;;;;2191249;66;1643;-19
2024/03/22 12:45:41;;;;;;;;;;;;;;;;;;2195361;59;2140;-19
2024/03/22 12:48:11;;;;;;;;;;;;;;;;;;2191828;59;2358;-19
2024/03/22 12:50:41;;;;;;;;;;;;;;;;;;2192880;59;2001;-19
2024/03/22 12:53:11;;;;;;;;;;;;;;;;;;2194489;66;1991;-19
2024/03/22 12:55:42;;;;;;;;;;;;;;;;;;2193488;66;2212;-19
2024/03/22 12:58:12;;;;;;;;;;;;;;;;;;2194351;66;1991;-19
2024/03/22 13:00:42;;;;;;;;;;;;;;;;;;2193522;67;1777;-19
2024/03/22 13:03:15;;;;;;;;;;;;;;;;;;2191590;59;1967;-19
2024/03/22 13:05:45;;;;;;;;;;;;;;;;;;2195452;66;1755;-19
2024/03/22 13:08:15;;;;;;;;;;;;;;;;;;2191906;66;2017;-19
2024/03/22 13:10:46;;;;;;;;;;;;;;;;;;2193039;59;1940;-19
2024/03/22 13:13:16;;;;;;;;;;;;;;;;;;2192352;59;1896;-19
2024/03/22 13:15:46;;;;;;;;;;;;;;;;;;2193116;66;2125;-19
2024/03/22 13:18:17;;;;;;;;;;;;;;;;;;2191663;66;2547;-19
2024/03/22 13:20:48;;;;;;;;;;;;;;;;;;2193688;66;1953;-19
2024/03/22 13:23:18;;;;;;;;;;;;;;;;;;2191942;59;1861;-19
2024/03/22 13:25:48;;;;;;;;;;;;;;;;;;2194661;67;2054;-19
2024/03/22 13:28:22;;;;;;;;;;;;;;;;;;2192463;66;2012;-19
2024/03/22 13:31:02;;;;;;;;;;;;;;;;;;2192937;66;1948;-19
2024/03/22 13:33:33;;;;;;;;;;;;;;;;;;2192547;59;1842;-19
2024/03/22 13:36:05;;;;;;;;;;;;;;;;;;2192421;67;1729;-19
2024/03/22 13:38:35;;;;;;;;;;;;;;;;;;2194007;59;1763;-19
2024/03/22 13:41:06;;;;;;;;;;;;;;;;;;2192470;59;2285;-19
2024/03/22 13:43:37;;;;;;;;;;;;;;;;;;2193165;67;1927;-19
2024/03/22 13:46:07;;;;;;;;;;;;;;;;;;2192311;59;1746;-19
2024/03/22 13:48:37;;;;;;;;;;;;;;;;;;2193163;59;1967;-19
2024/03/22 13:51:08;;;;;;;;;;;;;;;;;;2194130;66;1940;-19
2024/03/22 13:53:38;;;;;;;;;;;;;;;;;;2195275;66;2260;-19
2024/03/22 13:56:08;;;;;;;;;;;;;;;;;;2195028;59;1884;-19
2024/03/22 13:58:38;;;;;;;;;;;;;;;;;;2193233;66;1800;-19
2024/03/22 14:01:10;;;;;;;;;;;;;;;;;;2192169;66;1827;-18
2024/03/22 14:03:41;;;;;;;;;;;;;;;;;;2193163;66;2585;-19
2024/03/22 14:06:12;;;;;;;;;;;;;;;;;;2192364;66;2745;-19
2024/03/22 14:08:43;;;;;;;;;;;;;;;;;;2192632;66;1813;-18
2024/03/22 14:11:13;;;;;;;;;;;;;;;;;;2192068;59;1929;-19
2024/03/22 14:13:44;;;;;;;;;;;;;;;;;;2193200;59;2954;-19
2024/03/22 14:16:14;;;;;;;;;;;;;;;;;;2193523;66;2872;-19
2024/03/22 14:18:45;;;;;;;;;;;;;;;;;;2190424;67;2399;-19
2024/03/22 14:21:19;;;;;;;;;;;;;;;;;;2191878;59;2011;-19
2024/03/22 14:23:49;;;;;;;;;;;;;;;;;;2193013;59;1759;-19
2024/03/22 14:26:19;;;;;;;;;;;;;;;;;;2191863;66;1881;-19
2024/03/22 14:28:50;;;;;;;;;;;;;;;;;;2192803;66;1937;-19
2024/03/22 14:31:21;;;;;;;;;;;;;;;;;;2192167;67;1940;-19
2024/03/22 14:33:51;;;;;;;;;;;;;;;;;;2192547;59;2138;-19
2024/03/22 14:36:21;;;;;;;;;;;;;;;;;;2193998;66;1812;-19
2024/03/22 14:38:52;;;;;;;;;;;;;;;;;;2196104;59;2467;-19
2024/03/22 14:41:22;;;;;;;;;;;;;;;;;;2191603;59;2121;-19
2024/03/22 14:43:52;;;;;;;;;;;;;;;;;;2192133;59;2586;-19
2024/03/22 14:46:25;;;;;;;;;;;;;;;;;;2192571;59;2495;-19
2024/03/22 14:48:56;;;;;;;;;;;;;;;;;;2192889;59;1935;-19
2024/03/22 14:51:26;;;;;;;;;;;;;;;;;;2191188;59;1936;-19
2024/03/22 14:53:57;;;;;;;;;;;;;;;;;;2193129;59;2034;-19
2024/03/22 14:56:27;;;;;;;;;;;;;;;;;;2190960;67;2271;-19
2024/03/22 14:58:59;;;;;;;;;;;;;;;;;;2191986;59;2100;-19
2024/03/22 15:01:30;;;;;;;;;;;;;;;;;;2190986;66;2033;-19
2024/03/22 15:04:00;;;;;;;;;;;;;;;;;;2193911;66;2050;-19
2024/03/22 15:06:30;;;;;;;;;;;;;;;;;;2191846;66;1910;-19
2024/03/22 15:09:08;;;;;;;;;;;;;;;;;;2192301;58;2101;-19
2024/03/22 15:11:39;;;;;;;;;;;;;;;;;;2192969;59;1998;-19
2024/03/22 15:14:09;;;;;;;;;;;;;;;;;;2189912;59;1871;-19
2024/03/22 15:16:41;;;;;;;;;;;;;;;;;;2189265;67;2199;-19
2024/03/22 15:19:12;;;;;;;;;;;;;;;;;;2189432;59;1821;-19
2024/03/22 15:21:42;;;;;;;;;;;;;;;;;;2191149;67;1813;-19
2024/03/22 15:24:13;;;;;;;;;;;;;;;;;;2189678;67;1863;-19
2024/03/22 15:26:43;;;;;;;;;;;;;;;;;;2193726;59;1974;-19
2024/03/22 15:29:13;;;;;;;;;;;;;;;;;;2190419;67;1825;-19
2024/03/22 15:31:44;;;;;;;;;;;;;;;;;;2192202;67;2786;-19
2024/03/22 15:34:14;;;;;;;;;;;;;;;;;;2189597;66;1866;-19
2024/03/22 15:36:45;;;;;;;;;;;;;;;;;;2191746;67;1914;-19
2024/03/22 15:39:18;;;;;;;;;;;;;;;;;;2191011;59;1936;-19
2024/03/22 15:41:48;;;;;;;;;;;;;;;;;;2192436;59;2587;-19
2024/03/22 15:44:18;;;;;;;;;;;;;;;;;;2190323;59;1993;-19
2024/03/22 15:46:49;;;;;;;;;;;;;;;;;;2193257;64;2102;-19
2024/03/22 15:49:20;;;;;;;;;;;;;;;;;;2190980;67;2683;-19
2024/03/22 15:51:50;;;;;;;;;;;;;;;;;;2191502;67;2012;-18
2024/03/22 15:54:20;;;;;;;;;;;;;;;;;;2191455;59;2081;-18
2024/03/22 15:56:51;;;;;;;;;;;;;;;;;;2192706;67;2054;-18
2024/03/22 15:59:21;;;;;;;;;;;;;;;;;;2191163;59;1997;-19
2024/03/22 16:01:52;;;;;;;;;;;;;;;;;;2192949;66;1936;-19
2024/03/22 16:04:22;;;;;;;;;;;;;;;;;;2191267;67;1954;-18
2024/03/22 16:06:53;;;;;;;;;;;;;;;;;;2193015;67;1943;-19
2024/03/22 16:09:23;;;;;;;;;;;;;;;;;;2191638;67;1785;-18
2024/03/22 16:11:54;;;;;;;;;;;;;;;;;;2193357;59;1981;-18
2024/03/22 16:14:24;;;;;;;;;;;;;;;;;;2191869;59;2398;-18
2024/03/22 16:16:55;;;;;;;;;;;;;;;;;;2193152;67;1614;-18
2024/03/22 16:19:25;;;;;;;;;;;;;;;;;;2192033;59;1768;-18
2024/03/22 16:21:55;;;;;;;;;;;;;;;;;;2196249;66;2207;-18
2024/03/22 16:24:27;;;;;;;;;;;;;;;;;;2192858;59;1863;-19
2024/03/22 16:26:57;;;;;;;;;;;;;;;;;;2193166;67;1807;-18
2024/03/22 16:29:27;;;;;;;;;;;;;;;;;;2192173;67;1893;-18
2024/03/22 16:31:58;;;;;;;;;;;;;;;;;;2194036;59;1936;-18
2024/03/22 16:34:28;;;;;;;;;;;;;;;;;;2194797;59;1890;-18
2024/03/22 16:36:58;;;;;;;;;;;;;;;;;;2194123;59;1745;-18
2024/03/22 16:39:29;;;;;;;;;;;;;;;;;;2194665;59;2160;-18
2024/03/22 16:41:59;;;;;;;;;;;;;;;;;;2193204;59;1687;-18
2024/03/22 16:44:29;;;;;;;;;;;;;;;;;;2192466;59;2624;-18
2024/03/22 16:47:00;;;;;;;;;;;;;;;;;;2196189;59;1896;-19
2024/03/22 16:49:30;;;;;;;;;;;;;;;;;;2191763;60;1836;-18
2024/03/22 16:52:01;;;;;;;;;;;;;;;;;;2195672;66;2075;-18
2024/03/22 16:54:31;;;;;;;;;;;;;;;;;;2194827;59;2005;-18
2024/03/22 16:57:01;;;;;;;;;;;;;;;;;;2195750;66;1929;-18
2024/03/22 16:59:31;;;;;;;;;;;;;;;;;;2192806;59;2200;-18
2024/03/22 17:02:02;;;;;;;;;;;;;;;;;;2194335;67;1880;-18
2024/03/22 17:04:32;;;;;;;;;;;;;;;;;;2192378;66;1955;-18
2024/03/22 17:07:03;;;;;;;;;;;;;;;;;;2193791;67;2518;-18
2024/03/22 17:09:33;;;;;;;;;;;;;;;;;;2192059;67;1926;-18
2024/03/22 17:12:05;;;;;;;;;;;;;;;;;;2197954;59;2777;-18
2024/03/22 17:14:35;;;;;;;;;;;;;;;;;;2194054;59;2813;-18
2024/03/22 17:17:05;;;;;;;;;;;;;;;;;;2195999;59;1703;-18
2024/03/22 17:19:36;;;;;;;;;;;;;;;;;;2192778;66;1923;-18
2024/03/22 17:22:06;;;;;;;;;;;;;;;;;;2194856;67;2035;-18
2024/03/22 17:24:36;;;;;;;;;;;;;;;;;;2195302;59;2098;-18
2024/03/22 17:27:08;;;;;;;;;;;;;;;;;;2194133;59;1909;-18